SBVT/VIX METAR and TAF weather

Enter ICAO airport designator
Station Type Date Time Source
SBVT METAR 2020/07/06 22:00 UTC NOAA

SBVT 062200Z 35003KT CAVOK 23/20 Q1017


Station Type Date Time Source
SBVT Decoded METAR 2020/07/06 22:00 UTC NOAA

Vitoria Aeroporto , Brazil (SBVT) 20-16S 040-17W 4M
Jul 06, 2020 - 06:00 PM EDT / 2020.07.06 2200 UTC
Wind: from the N (350 degrees) at 3 MPH (3 KT):0
Visibility: greater than 7 mile(s):0
Temperature: 73 F (23 C)
Dew Point: 68 F (20 C)
Relative Humidity: 83%
Pressure (altimeter): 30.03 in. Hg (1017 hPa)
ob: SBVT 062200Z 35003KT CAVOK 23/20 Q1017
cycle: 22

Station Type Date Time Source
SBVT TAF 2020/07/06 18:21 UTC NOAA

TAF SBVT 061500Z 0618/0718 06007KT 9999 FEW035 TN18/0708Z TX27/0715Z
BECMG 0622/0624 33003KT CAVOK
BECMG 0713/0715 07007KT 9999 FEW025
RMK PDW

Example: see airport list